Aérodrome :
LOGIN :

S'inscrire | Disclaimer

   EN    FR    IT 

 










Légende :    VFR   VFR Marginal   IFR   IFR Intensif   IFR Très Intensif
Visi : 
Plafond : 
>= 8 km
>= 3000ft
5 à 8 km
1000 à 3000 ft
1500m à 5 km
500 à 1000 ft
800 à 1500m
200 à 500 ft
< 800m
< 200 ft
Symboles :   Orages  Brouillard  Fortes neiges  Fortes précipitations  Vent > 20 kt
SIGMETs :   Divers  Orages  Givrage  Turbulence  Onde Orograph.  Cendres Volcan.






- Altitude de l'aérodrome : 659 ft
- Code IATA : LGG


EBLG - Liège

DERNIER METAR :
  • 202120Z VRB02KT CAVOK 25/18 Q1007 NOSIG

METARs EXPIRÉS :
  • 202050Z 25004KT 210V290 CAVOK 24/18 Q1007 NOSIG
  • 202020Z VRB02KT CAVOK 26/18 Q1007 TEMPO VRB15G25KT 4000 SHRA BKN040CB
  • 201950Z 12004KT 9999 FEW050CB 26/18 Q1007 TEMPO VRB15G25KT 4000 SHRA BKN040CB
  • 201920Z 13004KT 9999 FEW050CB 27/18 Q1007 TEMPO VRB15G25KT 4000 TSRA BKN040CB
  • 201850Z 03004KT 9999 FEW050CB 26/18 Q1007 TEMPO VRB15G25KT 4000 TSRA BKN040CB
  • 201820Z 05008KT 9999 FEW050CB 27/18 Q1007 TEMPO VRB15G25KT 4000 TSRA BKN040CB
  • 201750Z 04004KT 320V060 9999 FEW060CB 27/19 Q1007 TEMPO VRB15G25KT 4000 TSRA BKN040CB
  • 201720Z 23009KT 9999 FEW060CB 29/17 Q1007 TEMPO VRB15G25KT 4000 TSRA BKN040CB
  • 201650Z 21011KT 9999 FEW060CB 30/19 Q1007 TEMPO VRB15G25KT 4000 TSRA BKN040CB
  • 201620Z 23011KT 9999 FEW060CB 30/19 Q1007 TEMPO VRB15G25KT 4000 TSRA BKN040CB

TAF TAF EBLG
Valide du 20 à 18h jusqu'au 22 à 00h UTC


201702Z 2018/2124 VRB04KT 9999 FEW040TCU
PROB30
TEMPO 2018/2022 VRB15G25KT 4000 SHRA TSRA BKN040CB
TEMPO 2100/2103 VRB20G35KT 3000 SHRA TSRA BKN030CB
PROB40
TEMPO 2100/2103 VRB25G45KT 1500 +TSRAGR BKN012 BKN030CB
PROB30
TEMPO 2110/2117 4000 SHRA SCT030CB



MET'MAP, la Météo Aéronautique d'un coup d'oeil ! - Copyright ORBIFLY Décembre 2007 - Disclaimer

ORBIFLY MET'MAP TEAM :

Programmation & Développement : Alexandra Zaïnal
Sur une idée originale de : Baudouin d'Aumeries
Soutien technique & logistique : Manuel Goepfert
Assistance : Marc-Olivier Méhu




SOURCES & CREDITS :

   NOAA